Time;durP1;ratioP1;P1;durP2;ratioP2;P2;SDS_P1;SDS_P2;PMS_P1;PMS_P2;Temp;Humidity;BMP_temperature;BMP_pressure;BME280_temperature;BME280_humidity;BME280_pressure;Samples;Min_cycle;Max_cycle;Signal;HPM_P1;HPM_P2
2022/05/18 00:00:27;;;;;;;6.85;4.95;;;;;;;17.82;75.81;101733.47;5116519;28;20041;-63
2022/05/18 00:02:56;;;;;;;8.57;5.10;;;;;;;17.71;76.53;101728.47;5117081;28;20036;-65
2022/05/18 00:05:21;;;;;;;9.50;5.13;;;;;;;17.65;76.78;101726.03;5116643;28;20023;-64
2022/05/18 00:07:46;;;;;;;8.82;4.72;;;;;;;17.68;76.30;101727.69;5113369;28;20036;-63
2022/05/18 00:10:12;;;;;;;8.57;5.10;;;;;;;17.64;76.62;101737.53;5116681;28;20055;-64
2022/05/18 00:12:49;;;;;;;10.65;5.40;;;;;;;17.72;76.21;101735.50;5116737;28;20497;-64
2022/05/18 00:15:17;;;;;;;6.88;5.20;;;;;;;17.61;77.03;101742.84;5116415;28;20039;-63
2022/05/18 00:17:42;;;;;;;6.95;4.95;;;;;;;17.56;77.39;101744.75;5116469;28;20032;-63
2022/05/18 00:20:08;;;;;;;11.65;5.20;;;;;;;17.52;77.15;101740.44;5116355;28;20039;-63
2022/05/18 00:22:42;;;;;;;7.90;4.90;;;;;;;17.55;76.51;101748.31;5116419;28;20102;-64
2022/05/18 00:25:08;;;;;;;9.43;5.15;;;;;;;17.46;77.22;101739.78;5116392;28;20036;-63
2022/05/18 00:27:34;;;;;;;8.95;5.15;;;;;;;17.44;77.20;101742.47;5113275;28;20032;-63
2022/05/18 00:29:59;;;;;;;11.10;5.40;;;;;;;17.48;76.82;101748.53;5116293;28;20054;-64
2022/05/18 00:32:24;;;;;;;8.27;5.05;;;;;;;17.43;77.03;101745.16;5116554;28;20298;-65
2022/05/18 00:34:49;;;;;;;8.80;5.50;;;;;;;17.47;76.83;101744.16;5116271;28;20092;-64
2022/05/18 00:37:15;;;;;;;8.57;5.45;;;;;;;17.39;77.39;101747.88;5115560;28;20265;-64
2022/05/18 00:39:40;;;;;;;10.02;5.78;;;;;;;17.32;77.15;101745.41;5116339;28;20034;-64
2022/05/18 00:42:05;;;;;;;8.60;5.27;;;;;;;17.14;77.88;101738.00;5115933;28;20038;-64
2022/05/18 00:44:31;;;;;;;8.98;5.30;;;;;;;17.16;77.97;101752.03;5116120;28;20285;-64
2022/05/18 00:46:56;;;;;;;10.45;5.05;;;;;;;17.15;77.81;101745.00;5115927;28;20050;-64
2022/05/18 00:49:21;;;;;;;12.87;5.13;;;;;;;17.10;78.34;101745.13;5115994;28;20042;-64
2022/05/18 00:51:54;;;;;;;10.27;5.18;;;;;;;17.05;78.52;101754.97;5115606;28;20708;-63
2022/05/18 00:54:26;;;;;;;9.27;5.15;;;;;;;17.01;78.51;101742.72;5116000;28;20060;-63
2022/05/18 00:57:04;;;;;;;;;;;;;;;17.17;76.44;101743.19;5116103;28;20019;-64
2022/05/18 00:59:44;;;;;;;10.93;5.07;;;;;;;17.00;78.13;101747.13;5115706;28;19969;-64
2022/05/18 01:02:11;;;;;;;10.73;5.20;;;;;;;16.99;78.58;101741.88;5116078;28;20130;-64
2022/05/18 01:04:39;;;;;;;11.43;5.50;;;;;;;16.98;78.92;101745.44;5115924;28;20031;-63
2022/05/18 01:07:10;;;;;;;9.02;5.35;;;;;;;16.90;78.96;101743.00;5115748;28;20096;-65
2022/05/18 01:09:44;;;;;;;9.65;5.15;;;;;;;16.92;78.76;101746.47;5115640;28;20055;-64
2022/05/18 01:12:12;;;;;;;10.05;5.63;;;;;;;16.86;79.03;101754.56;5115585;28;20034;-63
2022/05/18 01:14:43;;;;;;;9.38;4.93;;;;;;;16.84;79.72;101751.06;5115600;28;20031;-64
2022/05/18 01:17:09;;;;;;;11.20;5.38;;;;;;;16.80;79.35;101748.53;5115690;28;20039;-64
2022/05/18 01:19:44;;;;;;;9.73;5.45;;;;;;;16.71;80.29;101749.66;5115493;28;20036;-63
2022/05/18 01:22:28;;;;;;;8.90;4.97;;;;;;;16.74;80.06;101746.06;5115066;28;20369;-63
2022/05/18 01:25:25;;;;;;;10.93;5.57;;;;;;;16.81;79.45;101752.91;5115384;28;20032;-63
2022/05/18 01:27:51;;;;;;;10.85;5.30;;;;;;;16.67;80.05;101740.03;5115980;28;20028;-63
2022/05/18 01:30:17;;;;;;;8.10;5.05;;;;;;;16.72;80.26;101746.09;5115401;28;20024;-63
2022/05/18 01:32:46;;;;;;;9.90;5.25;;;;;;;16.66;80.89;101747.09;5115177;28;20061;-64
2022/05/18 01:35:14;;;;;;;10.32;5.35;;;;;;;16.56;81.40;101744.69;5115320;28;20059;-64
2022/05/18 01:37:40;;;;;;;7.95;5.43;;;;;;;16.64;81.09;101754.19;5115324;28;20053;-63
2022/05/18 01:40:14;;;;;;;10.95;6.20;;;;;;;16.64;81.34;101754.19;5115203;28;20051;-64
2022/05/18 01:42:39;;;;;;;11.23;5.90;;;;;;;16.70;81.17;101748.78;5115190;28;20024;-65
2022/05/18 01:45:04;;;;;;;9.37;6.03;;;;;;;16.70;81.25;101743.50;5115645;28;20043;-64
2022/05/18 01:47:34;;;;;;;9.85;5.72;;;;;;;16.68;81.44;101745.31;5115570;28;20390;-64
2022/05/18 01:50:01;;;;;;;8.00;5.40;;;;;;;16.69;81.53;101748.81;5117543;28;20039;-64
2022/05/18 01:52:26;;;;;;;8.95;5.93;;;;;;;16.69;81.41;101733.81;5119452;28;20023;-63
2022/05/18 01:54:51;;;;;;;9.43;5.97;;;;;;;16.73;81.54;101746.97;5119251;28;20038;-63
2022/05/18 01:57:17;;;;;;;10.57;6.23;;;;;;;16.73;80.82;101745.19;5119396;28;20039;-63
2022/05/18 01:59:42;;;;;;;10.70;5.95;;;;;;;16.65;81.42;101739.22;5119225;28;20272;-63
2022/05/18 02:02:12;;;;;;;10.43;6.10;;;;;;;16.61;81.68;101748.13;5118758;28;20490;-63
2022/05/18 02:04:39;;;;;;;7.75;5.80;;;;;;;16.54;81.92;101739.44;5119116;28;20235;-63
2022/05/18 02:07:04;;;;;;;8.82;6.20;;;;;;;16.57;82.06;101735.88;5119075;28;20055;-63
2022/05/18 02:09:30;;;;;;;9.98;5.88;;;;;;;16.47;82.11;101736.97;5118941;28;20035;-63
2022/05/18 02:11:56;;;;;;;10.73;6.25;;;;;;;16.47;82.71;101744.91;5119125;28;20024;-64
2022/05/18 02:14:22;;;;;;;10.60;6.10;;;;;;;16.50;81.25;101744.84;5118810;28;20032;-64
2022/05/18 02:16:48;;;;;;;9.48;6.53;;;;;;;16.42;82.73;101734.47;5118232;28;20040;-64
2022/05/18 02:19:14;;;;;;;8.60;6.18;;;;;;;16.45;83.20;101744.09;5118779;28;20339;-64
2022/05/18 02:21:40;;;;;;;10.90;6.55;;;;;;;16.30;83.36;101742.66;5118824;28;20032;-64
2022/05/18 02:24:05;;;;;;;8.73;6.65;;;;;;;16.33;83.22;101735.53;5118633;28;20400;-63
2022/05/18 02:26:30;;;;;;;9.98;7.35;;;;;;;16.37;83.29;101736.34;5118582;28;20042;-64
2022/05/18 02:28:56;;;;;;;10.50;7.38;;;;;;;16.25;84.03;101729.56;5118469;28;20027;-63
2022/05/18 02:31:21;;;;;;;11.82;7.70;;;;;;;16.31;83.90;101737.34;5118527;28;20115;-64
2022/05/18 02:33:47;;;;;;;12.65;7.75;;;;;;;16.26;83.90;101725.16;5118099;28;20439;-64
2022/05/18 02:36:12;;;;;;;10.10;7.30;;;;;;;16.27;83.51;101726.91;5118505;28;20035;-64
2022/05/18 02:38:39;;;;;;;10.32;8.00;;;;;;;16.25;84.53;101731.34;5118657;28;20449;-64
2022/05/18 02:41:04;;;;;;;12.82;8.10;;;;;;;16.30;84.03;101740.88;5118256;28;20443;-63
2022/05/18 02:43:30;;;;;;;11.68;8.20;;;;;;;16.24;84.66;101727.81;5118611;28;20057;-62
2022/05/18 02:46:09;;;;;;;11.13;8.40;;;;;;;16.29;84.47;101735.63;5118211;28;20032;-64
2022/05/18 02:48:34;;;;;;;12.05;8.40;;;;;;;16.29;84.91;101733.84;5118249;28;20067;-63
2022/05/18 02:50:59;;;;;;;11.80;8.27;;;;;;;16.34;84.14;101734.63;5118343;28;20398;-63
2022/05/18 02:53:25;;;;;;;11.88;8.75;;;;;;;16.32;84.72;101736.44;5118361;28;20439;-63
2022/05/18 02:56:05;;;;;;;12.05;8.38;;;;;;;16.33;83.86;101732.88;5117968;28;20438;-62
2022/05/18 02:58:36;;;;;;;14.32;8.77;;;;;;;16.30;85.09;101729.44;5117876;28;20453;-63
2022/05/18 03:01:07;;;;;;;11.55;8.50;;;;;;;16.35;84.78;101733.72;5100320;28;20046;-63
2022/05/18 03:03:33;;;;;;;11.75;8.55;;;;;;;16.29;84.87;101735.63;5117845;28;20392;-63
2022/05/18 03:05:58;;;;;;;10.55;8.48;;;;;;;16.32;84.81;101740.84;5117993;28;20066;-62
2022/05/18 03:08:23;;;;;;;12.30;8.10;;;;;;;16.24;84.83;101751.59;5117759;28;20453;-62
2022/05/18 03:10:48;;;;;;;11.50;8.00;;;;;;;16.30;84.38;101747.94;5117617;28;20269;-63
2022/05/18 03:13:14;;;;;;;13.50;8.68;;;;;;;16.26;85.18;101757.72;5117894;28;20102;-62
2022/05/18 03:15:39;;;;;;;12.03;8.87;;;;;;;16.31;85.16;101754.94;5117946;28;20339;-62
2022/05/18 03:18:04;;;;;;;15.10;9.13;;;;;;;16.29;85.19;101759.41;5117685;28;20273;-63
2022/05/18 03:23:34;;;;;;;14.80;8.93;;;;;;;16.30;84.66;101759.38;5074787;28;20044;-63
2022/05/18 03:26:00;;;;;;;11.70;9.10;;;;;;;16.22;85.52;101777.16;5074854;28;20040;-63
2022/05/18 03:28:25;;;;;;;14.00;8.95;;;;;;;16.23;85.29;101768.34;5094925;28;20411;-62
2022/05/18 03:30:51;;;;;;;13.05;9.40;;;;;;;16.33;84.87;101767.22;5117088;28;20080;-63
2022/05/18 03:33:16;;;;;;;12.25;9.05;;;;;;;16.42;84.70;101767.94;5117591;28;20048;-63
2022/05/18 03:35:41;;;;;;;10.73;8.52;;;;;;;16.48;84.52;101773.06;5117113;28;20035;-62
2022/05/18 03:38:07;;;;;;;12.07;9.38;;;;;;;16.57;83.83;101772.88;5117630;28;20032;-62
2022/05/18 03:40:36;;;;;;;14.68;9.73;;;;;;;16.59;83.84;101769.28;5117299;28;20160;-62
2022/05/18 03:43:03;;;;;;;15.70;8.98;;;;;;;16.64;83.48;101775.34;5117348;28;20024;-62
2022/05/18 03:45:28;;;;;;;13.77;9.30;;;;;;;16.68;82.98;101770.84;5117421;28;20378;-62
2022/05/18 03:47:53;;;;;;;12.18;9.20;;;;;;;16.59;83.81;101765.78;5116965;28;20101;-62
2022/05/18 03:50:19;;;;;;;9.83;8.50;;;;;;;16.56;83.57;101768.47;5117174;28;20032;-63
2022/05/18 03:52:44;;;;;;;12.13;8.40;;;;;;;16.61;84.00;101782.47;5116942;28;20261;-63
2022/05/18 03:55:10;;;;;;;14.02;8.93;;;;;;;16.67;83.74;101791.13;5116803;28;20092;-62
2022/05/18 03:57:35;;;;;;;13.75;9.05;;;;;;;16.74;82.99;101785.72;5117154;28;20043;-63
2022/05/18 04:00:01;;;;;;;14.77;8.30;;;;;;;16.79;82.95;101782.06;5116897;28;20038;-62
2022/05/18 04:02:26;;;;;;;11.32;8.15;;;;;;;16.85;82.30;101783.66;5098487;28;20261;-63
2022/05/18 04:04:51;;;;;;;14.07;8.68;;;;;;;16.90;81.94;101777.38;5117532;28;20115;-63
2022/05/18 04:07:16;;;;;;;13.20;8.50;;;;;;;16.96;81.29;101771.94;5116856;28;20027;-62
2022/05/18 04:09:42;;;;;;;14.40;7.83;;;;;;;17.07;80.89;101776.94;5117042;28;20272;-63
2022/05/18 04:12:08;;;;;;;13.65;7.93;;;;;;;17.12;80.27;101777.72;5115693;28;20277;-63
2022/05/18 04:14:33;;;;;;;11.85;7.93;;;;;;;17.20;79.68;101782.78;5116714;28;20058;-62
2022/05/18 04:16:59;;;;;;;11.30;8.07;;;;;;;17.26;79.04;101775.56;5116458;28;20023;-64
2022/05/18 04:19:24;;;;;;;9.05;7.50;;;;;;;17.32;78.83;101771.88;5116277;28;20115;-62
2022/05/18 04:21:49;;;;;;;14.73;7.50;;;;;;;17.41;78.35;101779.59;5116533;28;20028;-62
2022/05/18 04:24:14;;;;;;;11.45;7.03;;;;;;;17.48;77.88;101780.31;5116343;28;20023;-62
2022/05/18 04:26:40;;;;;;;12.13;7.60;;;;;;;17.57;77.76;101788.84;5116362;28;20438;-63
2022/05/18 04:29:05;;;;;;;12.53;7.63;;;;;;;17.64;76.63;101787.81;5115920;28;20280;-62
2022/05/18 04:31:30;;;;;;;11.23;7.10;;;;;;;17.77;76.70;101787.47;5116748;28;20269;-62
2022/05/18 04:33:55;;;;;;;11.57;6.80;;;;;;;17.88;76.18;101793.31;5116206;28;20473;-62
2022/05/18 04:36:21;;;;;;;9.85;6.60;;;;;;;17.99;75.38;101794.75;5115941;28;20032;-62
2022/05/18 04:38:46;;;;;;;9.82;6.72;;;;;;;18.08;74.61;101796.25;5116230;28;20028;-65
2022/05/18 04:41:11;;;;;;;9.90;7.10;;;;;;;18.15;74.00;101800.47;5112846;28;20039;-62
2022/05/18 04:43:37;;;;;;;11.93;6.60;;;;;;;18.21;73.14;101794.97;5116042;28;20659;-63
2022/05/18 04:46:02;;;;;;;9.05;6.43;;;;;;;18.27;73.69;101804.53;5116240;28;20031;-62
2022/05/18 04:48:31;;;;;;;8.77;6.30;;;;;;;18.29;73.38;101808.88;5115745;28;20349;-63
2022/05/18 04:50:56;;;;;;;9.13;6.10;;;;;;;18.28;73.07;101806.28;5115890;28;20019;-62
2022/05/18 04:53:21;;;;;;;7.80;6.00;;;;;;;18.23;72.83;101795.81;5116277;28;20027;-63
2022/05/18 04:55:48;;;;;;;7.55;6.60;;;;;;;18.30;72.98;101809.75;5115864;28;20031;-59
2022/05/18 04:58:13;;;;;;;6.80;6.03;;;;;;;18.28;73.60;101816.88;5115914;28;20027;-62
2022/05/18 05:00:40;;;;;;;11.05;6.05;;;;;;;18.35;72.91;101815.78;5115658;28;20451;-63
2022/05/18 05:03:05;;;;;;;8.98;5.95;;;;;;;18.42;72.62;101820.84;5115554;28;20335;-62
2022/05/18 05:05:30;;;;;;;8.77;5.72;;;;;;;18.53;71.99;101825.81;5115541;28;20027;-63
2022/05/18 05:07:56;;;;;;;8.85;5.93;;;;;;;18.64;71.86;101826.38;5115785;28;20028;-62
2022/05/18 05:10:21;;;;;;;9.48;6.03;;;;;;;18.76;71.04;101835.72;5115858;28;20499;-63
2022/05/18 05:12:47;;;;;;;9.20;5.78;;;;;;;18.81;70.87;101827.63;5115577;28;20035;-62
2022/05/18 05:15:13;;;;;;;9.30;5.80;;;;;;;18.90;70.43;101832.63;5115456;28;20028;-62
2022/05/18 05:17:39;;;;;;;8.80;5.68;;;;;;;18.97;70.38;101835.06;5108625;28;20362;-62
2022/05/18 05:20:05;;;;;;;8.00;5.68;;;;;;;19.05;69.77;101838.31;5113900;28;20027;-62
2022/05/18 05:22:31;;;;;;;7.88;5.63;;;;;;;19.17;69.86;101834.41;5111639;28;20365;-62
2022/05/18 05:24:56;;;;;;;7.90;5.50;;;;;;;19.27;69.40;101842.91;5114796;28;20027;-62
2022/05/18 05:27:22;;;;;;;10.45;5.60;;;;;;;19.31;69.20;101842.78;5115316;28;20068;-60
2022/05/18 05:29:47;;;;;;;8.38;5.80;;;;;;;19.34;68.87;101833.84;5115359;28;20080;-63
2022/05/18 05:32:12;;;;;;;7.03;5.32;;;;;;;19.42;67.81;101835.28;5114724;28;20509;-62
2022/05/18 05:34:38;;;;;;;11.27;5.47;;;;;;;19.34;68.14;101820.56;5115070;28;20043;-62
2022/05/18 05:37:04;;;;;;;8.43;5.40;;;;;;;19.47;67.91;101837.81;5114963;28;20028;-63
2022/05/18 05:39:29;;;;;;;7.57;4.93;;;;;;;19.45;68.19;101835.19;5112224;28;20043;-62
2022/05/18 05:41:54;;;;;;;6.43;4.85;;;;;;;19.53;68.10;101847.38;5113899;28;20019;-63
2022/05/18 05:44:20;;;;;;;7.77;5.20;;;;;;;19.56;67.72;101850.81;5114892;28;20046;-62
2022/05/18 05:46:46;;;;;;;7.75;4.82;;;;;;;19.64;67.40;101856.72;5114562;28;20266;-64
2022/05/18 05:49:11;;;;;;;7.28;4.80;;;;;;;19.76;67.81;101848.28;5114806;28;20054;-62
2022/05/18 05:51:37;;;;;;;9.85;5.70;;;;;;;19.96;66.46;101852.91;5115036;28;20160;-62
2022/05/18 05:54:02;;;;;;;7.03;5.10;;;;;;;20.14;65.64;101859.31;5114661;28;20037;-62
2022/05/18 05:56:28;;;;;;;8.50;4.85;;;;;;;20.33;66.40;101876.34;5114755;28;20084;-62
2022/05/18 05:58:53;;;;;;;8.17;5.47;;;;;;;20.44;64.97;101874.16;5114889;28;20027;-62
2022/05/18 06:01:19;;;;;;;7.18;5.20;;;;;;;20.43;64.96;101864.44;5114884;28;20278;-64
2022/05/18 06:03:45;;;;;;;9.15;4.95;;;;;;;20.58;65.10;101880.75;5114778;28;20035;-63
2022/05/18 06:06:11;;;;;;;7.40;4.80;;;;;;;20.54;64.40;101874.69;5114757;28;20035;-61
2022/05/18 06:08:37;;;;;;;8.35;5.10;;;;;;;20.52;65.07;101881.84;5114847;28;20077;-62
2022/05/18 06:11:04;;;;;;;7.72;4.43;;;;;;;20.46;65.11;101885.59;5114864;28;20027;-62
2022/05/18 06:13:29;;;;;;;7.07;4.57;;;;;;;20.44;65.40;101878.59;5114659;28;20038;-62
2022/05/18 06:15:55;;;;;;;9.10;4.55;;;;;;;20.43;65.29;101884.88;5114368;28;20346;-63
2022/05/18 06:18:21;;;;;;;8.80;4.50;;;;;;;20.41;65.60;101878.75;5114286;28;20027;-61
2022/05/18 06:20:47;;;;;;;9.33;4.80;;;;;;;20.43;64.96;101891.03;5114418;28;20124;-62
2022/05/18 06:23:14;;;;;;;6.75;4.20;;;;;;;20.42;65.67;101902.63;5114069;28;20293;-59
2022/05/18 06:25:39;;;;;;;7.10;4.30;;;;;;;20.54;65.78;101900.41;5114433;28;20039;-61
2022/05/18 06:28:06;;;;;;;7.65;4.70;;;;;;;20.57;65.84;101897.66;5114880;28;20039;-61
2022/05/18 06:30:32;;;;;;;8.35;4.32;;;;;;;20.66;65.35;101905.25;5114758;28;20039;-61
2022/05/18 06:32:57;;;;;;;7.38;4.63;;;;;;;20.70;64.44;101905.09;5114429;28;20054;-61
2022/05/18 06:35:23;;;;;;;6.30;4.43;;;;;;;20.89;64.32;101899.91;5116152;28;20351;-61
2022/05/18 06:37:49;;;;;;;11.48;4.85;;;;;;;20.99;63.06;101903.94;5118173;28;20040;-61
2022/05/18 06:40:15;;;;;;;7.43;4.25;;;;;;;21.03;63.67;101902.03;5118686;28;20434;-61
2022/05/18 06:42:40;;;;;;;6.55;4.55;;;;;;;21.09;63.43;101905.31;5118573;28;20031;-61
2022/05/18 06:45:08;;;;;;;9.18;4.82;;;;;;;21.14;62.33;101908.66;5118301;28;20134;-61
2022/05/18 06:47:34;;;;;;;8.60;4.90;;;;;;;21.10;61.78;101906.19;5118644;28;20028;-61
2022/05/18 06:50:00;;;;;;;13.55;5.13;;;;;;;21.13;62.00;101911.38;5118386;28;20097;-61
2022/05/18 06:52:25;;;;;;;14.63;4.90;;;;;;;21.08;61.77;101908.91;5118224;28;20096;-61
2022/05/18 06:54:51;;;;;;;19.80;5.53;;;;;;;21.14;62.21;101913.97;5117390;28;20040;-61
2022/05/18 06:57:16;;;;;;;16.42;6.20;;;;;;;21.15;62.00;101899.72;5118157;28;20043;-61
2022/05/18 06:59:42;;;;;;;20.40;6.05;;;;;;;21.17;61.17;101918.31;5118364;28;20043;-61
2022/05/18 07:02:07;;;;;;;12.48;6.03;;;;;;;21.19;60.79;101920.00;5117016;28;20542;-61
2022/05/18 07:04:33;;;;;;;15.48;6.40;;;;;;;21.19;60.75;101932.44;5112758;28;20035;-62
2022/05/18 07:07:00;;;;;;;19.35;6.95;;;;;;;21.25;60.57;101929.56;5115113;28;20069;-63
2022/05/18 07:09:26;;;;;;;16.55;6.93;;;;;;;21.33;61.20;101927.44;5116371;28;20038;-63
2022/05/18 07:11:52;;;;;;;14.43;7.93;;;;;;;21.45;61.42;101929.63;5116033;28;20027;-63
2022/05/18 07:14:19;;;;;;;17.25;7.70;;;;;;;21.54;61.97;101929.22;5116118;28;20123;-63
2022/05/18 07:16:46;;;;;;;15.52;8.38;;;;;;;21.53;62.04;101934.59;5116062;28;20027;-64
2022/05/18 07:19:13;;;;;;;16.17;8.32;;;;;;;21.59;62.56;101934.34;5115999;28;20028;-64
2022/05/18 07:21:39;;;;;;;14.40;8.70;;;;;;;21.65;62.01;101931.41;5115978;28;20070;-64
2022/05/18 07:24:05;;;;;;;14.73;9.27;;;;;;;21.62;62.41;101936.03;5115967;28;20042;-64
2022/05/18 07:26:31;;;;;;;18.02;9.70;;;;;;;21.64;62.34;101939.50;5115397;28;20176;-63
2022/05/18 07:28:57;;;;;;;13.50;9.25;;;;;;;21.69;63.14;101943.69;5115399;28;20122;-64
2022/05/18 07:31:24;;;;;;;12.63;9.40;;;;;;;21.72;62.77;101946.22;5116795;28;20163;-64
2022/05/18 07:33:49;;;;;;;9.85;7.95;;;;;;;21.68;63.13;101936.63;5117671;28;20119;-63
2022/05/18 07:36:16;;;;;;;11.30;7.93;;;;;;;21.93;62.77;101948.91;5117282;28;20112;-63
2022/05/18 07:38:41;;;;;;;11.63;8.73;;;;;;;21.96;62.50;101947.00;5117129;28;20442;-63
2022/05/18 07:41:10;;;;;;;15.93;8.55;;;;;;;21.89;62.89;101941.03;5117290;28;20042;-63
2022/05/18 07:43:35;;;;;;;15.23;8.80;;;;;;;21.85;63.28;101941.22;5117052;28;20438;-60
2022/05/18 07:46:01;;;;;;;13.55;7.88;;;;;;;21.77;63.27;101941.59;5116957;28;20122;-64
2022/05/18 07:48:27;;;;;;;14.07;8.52;;;;;;;21.72;63.48;101948.91;5117654;28;20042;-64
2022/05/18 07:50:53;;;;;;;13.40;7.72;;;;;;;21.83;64.18;101951.97;5117128;28;20035;-58
2022/05/18 07:53:20;;;;;;;16.35;8.73;;;;;;;22.03;63.37;101948.47;5117346;28;20042;-64
2022/05/18 07:55:45;;;;;;;12.82;8.45;;;;;;;22.19;63.23;101954.00;5117028;28;20335;-64
2022/05/18 07:58:12;;;;;;;13.82;8.32;;;;;;;22.32;62.59;101954.34;5117174;28;20028;-64
2022/05/18 08:00:38;;;;;;;13.13;8.38;;;;;;;22.38;62.52;101960.25;5116995;28;20035;-64
2022/05/18 08:03:04;;;;;;;10.68;8.65;;;;;;;22.46;62.58;101950.09;5116816;28;20080;-64
2022/05/18 08:05:30;;;;;;;12.98;8.95;;;;;;;22.56;62.37;101958.56;5113575;28;20070;-65
2022/05/18 08:07:56;;;;;;;10.77;8.95;;;;;;;22.53;62.07;101961.34;5116715;28;20041;-65
2022/05/18 08:15:51;;;;;;;12.57;9.40;;;;;;;22.79;62.23;101963.75;5117066;28;20116;-65
2022/05/18 08:18:17;;;;;;;13.93;9.10;;;;;;;22.56;62.50;101964.75;5116531;28;20416;-64
2022/05/18 08:20:44;;;;;;;13.63;9.48;;;;;;;22.56;62.94;101963.88;5116639;28;20047;-64
2022/05/18 08:23:10;;;;;;;12.77;8.98;;;;;;;22.41;63.69;101960.13;5115808;28;20323;-66
2022/05/18 08:25:36;;;;;;;15.05;10.43;;;;;;;22.29;64.10;101962.47;5116640;28;20112;-65
2022/05/18 08:28:02;;;;;;;16.05;10.20;;;;;;;22.31;64.40;101960.59;5116209;28;20114;-64
2022/05/18 08:30:30;;;;;;;18.73;10.15;;;;;;;22.40;64.59;101961.03;5116345;28;20044;-65
2022/05/18 08:32:59;;;;;;;13.57;9.80;;;;;;;22.47;64.03;101967.84;5112796;28;20113;-64
2022/05/18 08:35:25;;;;;;;18.38;10.27;;;;;;;22.47;64.34;101973.19;5116134;28;20110;-64
2022/05/18 08:37:51;;;;;;;16.65;10.32;;;;;;;22.52;64.11;101970.28;5115812;28;20027;-65
2022/05/18 08:40:38;;;;;;;15.02;9.40;;;;;;;22.52;64.18;101960.47;5116143;28;20038;-64
2022/05/18 08:43:07;;;;;;;12.38;9.88;;;;;;;22.61;64.25;101974.34;5116129;28;20019;-64
2022/05/18 08:45:36;;;;;;;13.50;8.48;;;;;;;22.68;64.32;101973.16;5116056;28;20067;-64
2022/05/18 08:48:25;;;;;;;13.27;10.13;;;;;;;22.70;63.75;101968.59;5116076;28;20035;-64
2022/05/18 08:50:54;;;;;;;14.88;9.18;;;;;;;22.87;64.66;101972.22;5115706;28;20334;-65
2022/05/18 08:53:29;;;;;;;10.95;9.02;;;;;;;22.83;63.39;101976.00;5116470;28;20104;-65
2022/05/18 08:56:05;;;;;;;11.63;8.68;;;;;;;22.81;63.08;101974.34;5116060;28;20023;-65
2022/05/18 08:58:38;;;;;;;14.07;9.65;;;;;;;22.80;63.07;101976.16;5115338;28;20469;-64
2022/05/18 09:01:12;;;;;;;15.55;10.07;;;;;;;23.16;62.83;101970.88;5115658;28;20156;-64
2022/05/18 09:03:48;;;;;;;10.23;7.57;;;;;;;24.03;60.02;101968.38;5115965;28;20107;-65
2022/05/18 09:06:42;;;;;;;12.90;7.97;;;;;;;24.99;58.30;101966.75;5115984;28;20038;-65
2022/05/18 09:12:08;;;;;;;11.82;8.15;;;;;;;26.84;51.75;101972.72;5115785;28;20135;-65
2022/05/18 09:14:37;;;;;;;11.30;8.27;;;;;;;27.19;49.83;101975.81;5115644;28;20051;-64
2022/05/18 09:17:08;;;;;;;11.43;8.27;;;;;;;27.52;48.56;101968.25;5115787;28;20114;-64
2022/05/18 09:19:43;;;;;;;14.38;8.77;;;;;;;27.59;48.38;101964.19;5115210;28;20034;-65
2022/05/18 09:22:22;;;;;;;11.75;8.40;;;;;;;27.34;49.43;101967.63;5115540;28;20024;-64
2022/05/18 09:25:01;;;;;;;12.50;7.80;;;;;;;26.64;50.08;101965.91;5115510;28;20040;-65
2022/05/18 09:27:42;;;;;;;10.52;7.22;;;;;;;25.88;52.50;101965.19;5115426;28;20052;-65
2022/05/18 09:30:10;;;;;;;9.57;6.68;;;;;;;25.64;52.88;101964.81;5115411;28;20042;-59
2022/05/18 09:33:06;;;;;;;12.45;6.93;;;;;;;25.34;54.59;101972.81;5115274;28;20404;-61
2022/05/18 09:35:59;;;;;;;7.80;4.80;;;;;;;25.42;53.47;101973.25;5115699;28;20118;-63
2022/05/18 09:38:32;;;;;;;7.13;3.92;;;;;;;25.15;52.33;101956.91;5115387;28;20419;-63
2022/05/18 09:40:58;;;;;;;6.90;3.35;;;;;;;25.22;53.64;101969.00;5115515;28;20043;-63
2022/05/18 09:43:24;;;;;;;7.15;4.00;;;;;;;25.20;53.15;101965.56;5115566;28;20177;-63
2022/05/18 09:45:50;;;;;;;8.50;4.50;;;;;;;25.34;52.58;101962.09;5115271;28;20117;-63
2022/05/18 09:48:39;;;;;;;6.47;4.00;;;;;;;25.48;52.48;101956.78;5115466;28;20270;-62
2022/05/18 09:51:08;;;;;;;5.57;3.08;;;;;;;25.70;52.73;101959.09;5114986;28;20038;-64
2022/05/18 09:53:35;;;;;;;5.38;2.58;;;;;;;25.99;51.88;101960.91;5112889;28;20443;-64
2022/05/18 09:56:00;;;;;;;5.72;2.70;;;;;;;26.41;50.21;101963.78;5105163;28;20031;-64
2022/05/18 09:58:38;;;;;;;8.15;4.07;;;;;;;26.54;50.93;101957.56;5104988;28;20367;-64
2022/05/18 10:09:46;;;;;;;7.80;3.45;;;;;;;26.45;50.37;101978.75;5095157;28;20039;-63
2022/05/18 10:12:21;;;;;;;6.28;2.70;;;;;;;26.56;48.14;101973.56;5102866;28;20039;-63
2022/05/18 10:14:50;;;;;;;4.35;2.33;;;;;;;26.51;48.79;101972.97;5112978;28;20035;-62
2022/05/18 10:17:21;;;;;;;4.70;2.13;;;;;;;26.45;48.82;101973.38;5107025;28;20050;-62
2022/05/18 10:19:51;;;;;;;2.70;1.95;;;;;;;26.47;49.34;101961.59;5105485;28;20019;-63
2022/05/18 10:22:24;;;;;;;5.05;2.30;;;;;;;26.61;48.99;101958.03;5105766;28;20027;-64
2022/05/18 10:25:03;;;;;;;6.85;2.50;;;;;;;26.59;48.59;101968.88;5105410;28;20020;-65
2022/05/18 10:27:31;;;;;;;4.20;1.95;;;;;;;26.92;48.70;101967.69;5105462;28;20070;-64
2022/05/18 10:30:17;;;;;;;4.15;1.70;;;;;;;26.93;48.50;101966.72;5107035;28;20020;-62
2022/05/18 10:33:03;;;;;;;4.05;1.85;;;;;;;26.93;47.97;101964.03;5106365;28;20101;-63
2022/05/18 10:35:33;;;;;;;3.95;1.90;;;;;;;26.98;47.09;101965.53;5104999;28;20446;-64
2022/05/18 10:38:03;;;;;;;5.68;2.40;;;;;;;26.99;46.36;101967.25;5105088;28;20076;-64
2022/05/18 10:40:29;;;;;;;4.25;2.47;;;;;;;26.75;46.77;101958.03;5105563;28;20136;-65
2022/05/18 10:43:11;;;;;;;5.78;2.67;;;;;;;26.89;47.06;101957.13;5105837;28;20430;-64
2022/05/18 10:45:37;;;;;;;4.38;2.50;;;;;;;27.09;46.53;101954.06;5104678;28;20535;-63
2022/05/18 10:48:13;;;;;;;5.78;2.50;;;;;;;27.27;45.74;101950.16;5116510;28;20059;-64
2022/05/18 10:50:40;;;;;;;4.57;3.30;;;;;;;27.28;46.14;101951.91;5116777;28;20059;-63
2022/05/18 10:53:12;;;;;;;6.95;3.05;;;;;;;27.19;46.68;101944.41;5114031;28;20378;-64
2022/05/18 10:55:40;;;;;;;;;;;;;;;27.32;48.45;101949.88;5115194;28;20050;-65
2022/05/18 10:58:21;;;;;;;6.35;3.17;;;;;;;27.40;47.05;101942.16;5117986;28;19911;-65
2022/05/18 11:00:58;;;;;;;6.13;2.88;;;;;;;27.53;46.79;101952.97;5115212;28;20038;-63
2022/05/18 11:03:50;;;;;;;5.15;3.70;;;;;;;27.38;47.08;101954.81;5117891;28;20038;-63
2022/05/18 11:06:25;;;;;;;;;;;;;;;27.53;46.23;101952.97;5118415;28;20024;-62
2022/05/18 11:08:50;;;;;;;5.75;3.40;;;;;;;27.24;45.91;101942.31;5117896;28;19911;-62
2022/05/18 11:11:37;;;;;;;6.60;3.25;;;;;;;27.27;47.50;101942.09;5117730;28;20046;-62
2022/05/18 11:14:20;;;;;;;6.20;3.90;;;;;;;27.06;46.11;101942.66;5117999;28;20036;-62
2022/05/18 11:16:59;;;;;;;5.35;3.38;;;;;;;27.02;47.27;101937.47;5117959;28;20024;-62
2022/05/18 11:19:24;;;;;;;7.63;3.47;;;;;;;27.25;47.13;101935.97;5117558;28;20477;-62
2022/05/18 11:22:01;;;;;;;7.17;3.90;;;;;;;27.32;46.67;101937.31;5117393;28;20035;-62
2022/05/18 11:25:03;;;;;;;7.70;3.85;;;;;;;27.43;46.61;101938.41;5117589;28;20031;-61
2022/05/18 11:27:35;;;;;;;6.63;4.25;;;;;;;27.49;46.43;101928.09;5117456;28;20027;-62
2022/05/18 11:30:00;;;;;;;;;;;;;;;27.64;47.01;101932.47;5118126;28;20027;-62
2022/05/18 11:33:00;;;;;;;5.85;3.40;;;;;;;27.79;46.45;101929.69;5117261;28;19916;-63
2022/05/18 11:35:41;;;;;;;6.93;3.15;;;;;;;27.83;47.13;101915.09;5117326;28;20331;-62
2022/05/18 11:38:24;;;;;;;6.60;3.63;;;;;;;27.95;45.98;101922.28;5117237;28;20417;-62
2022/05/18 11:41:19;;;;;;;8.30;5.00;;;;;;;27.70;45.26;101918.63;5117104;28;20470;-62
2022/05/18 11:44:05;;;;;;;8.20;4.07;;;;;;;27.74;46.14;101924.63;5116940;28;20039;-62
2022/05/18 11:46:39;;;;;;;7.05;3.30;;;;;;;27.92;45.33;101923.38;5116922;28;20366;-62
2022/05/18 11:49:23;;;;;;;5.63;3.10;;;;;;;28.08;45.42;101917.78;5117101;28;20028;-62